Time;durP1;ratioP1;P1;durP2;ratioP2;P2;SDS_P1;SDS_P2;PMS_P1;PMS_P2;Temp;Humidity;BMP_temperature;BMP_pressure;BME280_temperature;BME280_humidity;BME280_pressure;Samples;Min_cycle;Max_cycle;Signal;HPM_P1;HPM_P2
2022/01/01 00:00:01;;;;;;;;;;;;;;;;;;5066377;28;19928;-71
2022/01/01 00:02:31;;;;;;;;;;;;;;;;;;5073669;28;19934;-71
2022/01/01 00:05:12;;;;;;;;;;;;;;;;;;5084062;28;20000;-71
2022/01/01 00:07:44;;;;;;;;;;;;;;;;;;5085649;28;19924;-71
2022/01/01 00:10:14;;;;;;;;;;;;;;;;;;5083189;28;19943;-71
2022/01/01 00:12:46;;;;;;;;;;;;;;;;;;5081422;28;19928;-71
2022/01/01 00:15:20;;;;;;;;;;;;;;;;;;5068696;28;19935;-71
2022/01/01 00:17:49;;;;;;;;;;;;;;;;;;5064970;28;19985;-71
2022/01/01 00:20:17;;;;;;;;;;;;;;;;;;5083905;28;19969;-71
2022/01/01 00:22:45;;;;;;;;;;;;;;;;;;5081525;28;19937;-71
2022/01/01 00:25:15;;;;;;;;;;;;;;;;;;5054304;28;19928;-71
2022/01/01 00:27:45;;;;;;;;;;;;;;;;;;5063940;28;19929;-71
2022/01/01 00:30:17;;;;;;;;;;;;;;;;;;5072082;28;19955;-71
2022/01/01 00:32:45;;;;;;;;;;;;;;;;;;5064590;28;19932;-71
2022/01/01 00:35:14;;;;;;;;;;;;;;;;;;5066190;28;19928;-71
2022/01/01 00:37:45;;;;;;;;;;;;;;;;;;5061926;28;19932;-71
2022/01/01 00:40:15;;;;;;;;;;;;;;;;;;5062302;28;19929;-71
2022/01/01 00:42:44;;;;;;;;;;;;;;;;;;5066012;28;19939;-71
2022/01/01 00:45:13;;;;;;;;;;;;;;;;;;5067391;28;19958;-71
2022/01/01 00:47:43;;;;;;;;;;;;;;;;;;5052537;28;19932;-71
2022/01/01 00:50:13;;;;;;;;;;;;;;;;;;5055775;28;19935;-71
2022/01/01 00:52:44;;;;;;;;;;;;;;;;;;5066688;28;20278;-71
2022/01/01 00:55:19;;;;;;;;;;;;;;;;;;5067189;28;19924;-71
2022/01/01 00:57:52;;;;;;;;;;;;;;;;;;5065814;28;19924;-71
2022/01/01 01:00:23;;;;;;;;;;;;;;;;;;5060547;28;19924;-71
2022/01/01 01:02:51;;;;;;;;;;;;;;;;;;5066722;28;19925;-71
2022/01/01 01:05:20;;;;;;;;;;;;;;;;;;5067630;28;19993;-71
2022/01/01 01:07:49;;;;;;;;;;;;;;;;;;5064922;28;19925;-71
2022/01/01 01:10:24;;;;;;;;;;;;;;;;;;5063858;28;19968;-71
2022/01/01 01:12:54;;;;;;;;;;;;;;;;;;5044199;28;19947;-71
2022/01/01 01:15:24;;;;;;;;;;;;;;;;;;5067114;28;20486;-71
2022/01/01 01:17:57;;;;;;;;;;;;;;;;;;5066409;28;19952;-71
2022/01/01 01:20:27;;;;;;;;;;;;;;;;;;5063779;28;19990;-71
2022/01/01 01:22:59;;;;;;;;;;;;;;;;;;5048960;28;19925;-71
2022/01/01 01:25:31;;;;;;;;;;;;;;;;;;5064874;28;19924;-71
2022/01/01 01:28:06;;;;;;;;;;;;;;;;;;5070862;28;19936;-71
2022/01/01 01:30:35;;;;;;;;;;;;;;;;;;5075774;28;20456;-72
2022/01/01 01:33:08;;;;;;;;;;;;;;;;;;5076735;28;19985;-71
2022/01/01 01:35:41;;;;;;;;;;;;;;;;;;5081442;28;20709;-71
2022/01/01 01:38:12;;;;;;;;;;;;;;;;;;5080884;28;20365;-71
2022/01/01 01:40:46;;;;;;;;;;;;;;;;;;5087001;28;19924;-71
2022/01/01 01:43:21;;;;;;;;;;;;;;;;;;5077304;28;19938;-71
2022/01/01 01:45:52;;;;;;;;;;;;;;;;;;5083190;28;19932;-71
2022/01/01 01:48:23;;;;;;;;;;;;;;;;;;5072912;28;19950;-71
2022/01/01 01:51:06;;;;;;;;;;;;;;;;;;5085046;28;19928;-71
2022/01/01 01:53:42;;;;;;;;;;;;;;;;;;5084622;28;20006;-71
2022/01/01 01:56:12;;;;;;;;;;;;;;;;;;5076734;28;19924;-71
2022/01/01 01:58:43;;;;;;;;;;;;;;;;;;5083555;28;20406;-71
2022/01/01 02:01:23;;;;;;;;;;;;;;;;;;5064863;28;19932;-71
2022/01/01 02:03:57;;;;;;;;;;;;;;;;;;5083163;28;20257;-71
2022/01/01 02:06:28;;;;;;;;;;;;;;;;;;5079768;28;19973;-71
2022/01/01 02:08:58;;;;;;;;;;;;;;;;;;5081289;28;20061;-71
2022/01/01 02:11:28;;;;;;;;;;;;;;;;;;5084044;28;19924;-71
2022/01/01 02:14:09;;;;;;;;;;;;;;;;;;5079051;28;20347;-71
2022/01/01 02:16:53;;;;;;;;;;;;;;;;;;5083223;28;20353;-71
2022/01/01 02:19:27;;;;;;;;;;;;;;;;;;5081363;28;20037;-71
2022/01/01 02:21:59;;;;;;;;;;;;;;;;;;5060359;28;19958;-71
2022/01/01 02:24:28;;;;;;;;;;;;;;;;;;5069382;28;19924;-71
2022/01/01 02:26:59;;;;;;;;;;;;;;;;;;5083332;28;19935;-71
2022/01/01 02:29:32;;;;;;;;;;;;;;;;;;5083249;28;19957;-71
2022/01/01 02:32:01;;;;;;;;;;;;;;;;;;5091316;28;19964;-71
2022/01/01 02:34:32;;;;;;;;;;;;;;;;;;5086395;28;19931;-71
2022/01/01 02:36:59;;;;;;;;;;;;;;;;;;5071871;28;20061;-71
2022/01/01 02:39:30;;;;;;;;;;;;;;;;;;5080958;28;20319;-71
2022/01/01 02:42:01;;;;;;;;;;;;;;;;;;5089185;28;20575;-71
2022/01/01 02:44:29;;;;;;;;;;;;;;;;;;5084583;28;20391;-70
2022/01/01 02:47:01;;;;;;;;;;;;;;;;;;5082253;28;19931;-71
2022/01/01 02:49:31;;;;;;;;;;;;;;;;;;5085057;28;20018;-71
2022/01/01 02:51:59;;;;;;;;;;;;;;;;;;5083477;28;19924;-71
2022/01/01 02:54:29;;;;;;;;;;;;;;;;;;5079833;28;19931;-71
2022/01/01 02:56:58;;;;;;;;;;;;;;;;;;5088920;28;20338;-71
2022/01/01 02:59:26;;;;;;;;;;;;;;;;;;5090373;28;19932;-71
2022/01/01 03:01:54;;;;;;;;;;;;;;;;;;5070712;28;19932;-71
2022/01/01 03:04:24;;;;;;;;;;;;;;;;;;5085368;28;19928;-72
2022/01/01 03:06:56;;;;;;;;;;;;;;;;;;5085248;28;19935;-71
2022/01/01 03:09:33;;;;;;;;;;;;;;;;;;5092169;28;19937;-72
2022/01/01 03:12:08;;;;;;;;;;;;;;;;;;5086374;28;20365;-71
2022/01/01 03:14:38;;;;;;;;;;;;;;;;;;5083109;28;19923;-71
2022/01/01 03:17:09;;;;;;;;;;;;;;;;;;5087621;28;19954;-71
2022/01/01 03:19:39;;;;;;;;;;;;;;;;;;5088290;28;19924;-70
2022/01/01 03:22:10;;;;;;;;;;;;;;;;;;5085070;28;19924;-71
2022/01/01 03:24:37;;;;;;;;;;;;;;;;;;5079652;28;19958;-71
2022/01/01 03:27:08;;;;;;;;;;;;;;;;;;5084476;28;19935;-71
2022/01/01 03:29:38;;;;;;;;;;;;;;;;;;5085989;28;19976;-71
2022/01/01 03:32:06;;;;;;;;;;;;;;;;;;5088783;28;19932;-72
2022/01/01 03:34:36;;;;;;;;;;;;;;;;;;5087430;28;19932;-71
2022/01/01 03:37:07;;;;;;;;;;;;;;;;;;5084999;28;19931;-71
2022/01/01 03:39:37;;;;;;;;;;;;;;;;;;5091645;28;19925;-72
2022/01/01 03:42:05;;;;;;;;;;;;;;;;;;5083415;28;19925;-71
2022/01/01 03:44:33;;;;;;;;;;;;;;;;;;5081540;28;19935;-71
2022/01/01 03:47:09;;;;;;;;;;;;;;;;;;5085196;28;19928;-71
2022/01/01 03:49:46;;;;;;;;;;;;;;;;;;5086079;28;19924;-71
2022/01/01 03:52:15;;;;;;;;;;;;;;;;;;5086918;28;19940;-71
2022/01/01 03:54:46;;;;;;;;;;;;;;;;;;5088361;28;19988;-71
2022/01/01 03:57:15;;;;;;;;;;;;;;;;;;5086871;28;20404;-71
2022/01/01 03:59:45;;;;;;;;;;;;;;;;;;5089140;28;20006;-71
2022/01/01 04:02:14;;;;;;;;;;;;;;;;;;5085775;28;20273;-71
2022/01/01 04:04:45;;;;;;;;;;;;;;;;;;5086546;28;20572;-71
2022/01/01 04:07:14;;;;;;;;;;;;;;;;;;5082822;28;20526;-71
2022/01/01 04:09:45;;;;;;;;;;;;;;;;;;5087863;28;20378;-71
2022/01/01 04:12:17;;;;;;;;;;;;;;;;;;5086038;28;19928;-71
2022/01/01 04:14:47;;;;;;;;;;;;;;;;;;5085549;28;19932;-71
2022/01/01 04:17:17;;;;;;;;;;;;;;;;;;5087608;28;19932;-71
2022/01/01 04:19:48;;;;;;;;;;;;;;;;;;5086881;28;20373;-71
2022/01/01 04:22:17;;;;;;;;;;;;;;;;;;5086060;28;19928;-71
2022/01/01 04:24:50;;;;;;;;;;;;;;;;;;5077459;28;19932;-71
2022/01/01 04:27:21;;;;;;;;;;;;;;;;;;5066227;28;19932;-70
2022/01/01 04:29:51;;;;;;;;;;;;;;;;;;5064039;28;19925;-70
2022/01/01 04:32:19;;;;;;;;;;;;;;;;;;5064120;28;19932;-70
2022/01/01 04:34:47;;;;;;;;;;;;;;;;;;5069290;28;20206;-70
2022/01/01 04:37:20;;;;;;;;;;;;;;;;;;5063873;28;19925;-70
2022/01/01 04:39:58;;;;;;;;;;;;;;;;;;5065855;28;19974;-70
2022/01/01 04:42:28;;;;;;;;;;;;;;;;;;5074995;28;19932;-71
2022/01/01 04:44:59;;;;;;;;;;;;;;;;;;5065811;28;19997;-70
2022/01/01 04:47:27;;;;;;;;;;;;;;;;;;5064569;28;20103;-70
2022/01/01 04:49:55;;;;;;;;;;;;;;;;;;5063421;28;19954;-71
2022/01/01 04:52:26;;;;;;;;;;;;;;;;;;5063802;28;19981;-71
2022/01/01 04:54:54;;;;;;;;;;;;;;;;;;5067390;28;19924;-70
2022/01/01 04:57:30;;;;;;;;;;;;;;;;;;5063649;28;19946;-70
2022/01/01 05:00:17;;;;;;;;;;;;;;;;;;5061419;28;19924;-70
2022/01/01 05:02:46;;;;;;;;;;;;;;;;;;5064572;28;19933;-70
2022/01/01 05:05:16;;;;;;;;;;;;;;;;;;5067685;28;20421;-70
2022/01/01 05:07:44;;;;;;;;;;;;;;;;;;5066094;28;19928;-70
2022/01/01 05:10:14;;;;;;;;;;;;;;;;;;5068495;28;19932;-70
2022/01/01 05:12:43;;;;;;;;;;;;;;;;;;5065680;28;19954;-70
2022/01/01 05:15:12;;;;;;;;;;;;;;;;;;5066097;28;20362;-70
2022/01/01 05:17:43;;;;;;;;;;;;;;;;;;5066088;28;19936;-70
2022/01/01 05:20:13;;;;;;;;;;;;;;;;;;5068065;28;19936;-71
2022/01/01 05:22:42;;;;;;;;;;;;;;;;;;5068508;28;19924;-71
2022/01/01 05:25:10;;;;;;;;;;;;;;;;;;5063963;28;19931;-71
2022/01/01 05:27:40;;;;;;;;;;;;;;;;;;5068599;28;20005;-71
2022/01/01 05:30:11;;;;;;;;;;;;;;;;;;5074795;28;19989;-71
2022/01/01 05:32:41;;;;;;;;;;;;;;;;;;5066586;28;19936;-71
2022/01/01 05:35:10;;;;;;;;;;;;;;;;;;5058581;28;19977;-71
2022/01/01 05:37:39;;;;;;;;;;;;;;;;;;5065228;28;19935;-71
2022/01/01 05:40:08;;;;;;;;;;;;;;;;;;5075440;28;19924;-71
2022/01/01 05:42:37;;;;;;;;;;;;;;;;;;5065856;28;19959;-71
2022/01/01 05:45:08;;;;;;;;;;;;;;;;;;5067683;28;19932;-71
2022/01/01 05:47:38;;;;;;;;;;;;;;;;;;5066986;28;19964;-71
2022/01/01 05:50:08;;;;;;;;;;;;;;;;;;5075971;28;19924;-71
2022/01/01 05:52:37;;;;;;;;;;;;;;;;;;5062437;28;20259;-71
2022/01/01 05:55:06;;;;;;;;;;;;;;;;;;5064906;28;20077;-71
2022/01/01 05:57:36;;;;;;;;;;;;;;;;;;5066949;28;19954;-71
2022/01/01 06:00:08;;;;;;;;;;;;;;;;;;5070236;28;20374;-71
2022/01/01 06:02:41;;;;;;;;;;;;;;;;;;5060702;28;19928;-71
2022/01/01 06:05:12;;;;;;;;;;;;;;;;;;5073317;28;19924;-71
2022/01/01 06:07:44;;;;;;;;;;;;;;;;;;5071779;28;19925;-71
2022/01/01 06:10:13;;;;;;;;;;;;;;;;;;5071136;28;19943;-71
2022/01/01 06:12:43;;;;;;;;;;;;;;;;;;5079821;28;19925;-70
2022/01/01 06:15:13;;;;;;;;;;;;;;;;;;5073279;28;19924;-71
2022/01/01 06:17:41;;;;;;;;;;;;;;;;;;5046868;28;19986;-71
2022/01/01 06:20:15;;;;;;;;;;;;;;;;;;5071747;28;19924;-71
2022/01/01 06:23:01;;;;;;;;;;;;;;;;;;5077279;28;19936;-71
2022/01/01 06:25:32;;;;;;;;;;;;;;;;;;5081396;28;19946;-71
2022/01/01 06:28:06;;;;;;;;;;;;;;;;;;5090999;28;19970;-71
2022/01/01 06:30:36;;;;;;;;;;;;;;;;;;5086483;28;19932;-71
2022/01/01 06:33:06;;;;;;;;;;;;;;;;;;5092281;28;19924;-71
2022/01/01 06:35:46;;;;;;;;;;;;;;;;;;5091082;28;19939;-71
2022/01/01 06:38:15;;;;;;;;;;;;;;;;;;5080688;28;19924;-71
2022/01/01 06:40:45;;;;;;;;;;;;;;;;;;5090369;28;19924;-71
2022/01/01 06:43:13;;;;;;;;;;;;;;;;;;5082331;28;20743;-71
2022/01/01 06:45:44;;;;;;;;;;;;;;;;;;5092119;28;19924;-71
2022/01/01 06:48:12;;;;;;;;;;;;;;;;;;5084521;28;19930;-71
2022/01/01 06:50:44;;;;;;;;;;;;;;;;;;5087142;28;19943;-71
2022/01/01 06:53:12;;;;;;;;;;;;;;;;;;5090186;28;19988;-71
2022/01/01 06:55:43;;;;;;;;;;;;;;;;;;5089379;28;19928;-71
2022/01/01 06:58:14;;;;;;;;;;;;;;;;;;5088968;28;19989;-71
2022/01/01 07:00:47;;;;;;;;;;;;;;;;;;5086835;28;19924;-70
2022/01/01 07:03:18;;;;;;;;;;;;;;;;;;5089191;28;19928;-70
2022/01/01 07:05:45;;;;;;;;;;;;;;;;;;5087601;28;19932;-70
2022/01/01 07:08:16;;;;;;;;;;;;;;;;;;5086522;28;19924;-70
2022/01/01 07:10:45;;;;;;;;;;;;;;;;;;5086470;28;19988;-70
2022/01/01 07:13:15;;;;;;;;;;;;;;;;;;5086385;28;19951;-70
2022/01/01 07:15:46;;;;;;;;;;;;;;;;;;5086115;28;19924;-71
2022/01/01 07:18:17;;;;;;;;;;;;;;;;;;5086385;28;19930;-71
2022/01/01 07:20:48;;;;;;;;;;;;;;;;;;5086240;28;20276;-71
2022/01/01 07:23:17;;;;;;;;;;;;;;;;;;5085742;28;19924;-71
2022/01/01 07:25:45;;;;;;;;;;;;;;;;;;5086049;28;19974;-70
2022/01/01 07:28:16;;;;;;;;;;;;;;;;;;5086470;28;19936;-71
2022/01/01 07:30:47;;;;;;;;;;;;;;;;;;5092011;28;19931;-70
2022/01/01 07:33:31;;;;;;;;;;;;;;;;;;5084722;28;20342;-70
2022/01/01 07:36:02;;;;;;;;;;;;;;;;;;5093256;28;19924;-70
2022/01/01 07:38:32;;;;;;;;;;;;;;;;;;5057052;28;19924;-71
2022/01/01 07:41:01;;;;;;;;;;;;;;;;;;5097213;28;19932;-70
2022/01/01 07:43:47;;;;;;;;;;;;;;;;;;5066995;28;20715;-71
2022/01/01 07:46:14;;;;;;;;;;;;;;;;;;5096108;28;19936;-71
2022/01/01 07:48:45;;;;;;;;;;;;;;;;;;5080500;28;20327;-71
2022/01/01 07:51:17;;;;;;;;;;;;;;;;;;5087812;28;19924;-72
2022/01/01 07:53:45;;;;;;;;;;;;;;;;;;5081210;28;19940;-71
2022/01/01 07:56:12;;;;;;;;;;;;;;;;;;5086604;28;19924;-71
2022/01/01 07:58:44;;;;;;;;;;;;;;;;;;5084990;28;19924;-71
2022/01/01 08:01:15;;;;;;;;;;;;;;;;;;5079211;28;19939;-70
2022/01/01 08:03:49;;;;;;;;;;;;;;;;;;5086784;28;19924;-70
2022/01/01 08:06:19;;;;;;;;;;;;;;;;;;5083825;28;19930;-70
2022/01/01 08:08:46;;;;;;;;;;;;;;;;;;5084109;28;19939;-70
2022/01/01 08:11:17;;;;;;;;;;;;;;;;;;5083199;28;19925;-70
2022/01/01 08:13:52;;;;;;;;;;;;;;;;;;5079655;28;19935;-70
2022/01/01 08:16:23;;;;;;;;;;;;;;;;;;5083898;28;19924;-70
2022/01/01 08:18:54;;;;;;;;;;;;;;;;;;5087068;28;19932;-70
2022/01/01 08:21:24;;;;;;;;;;;;;;;;;;5086566;28;20030;-71
2022/01/01 08:23:51;;;;;;;;;;;;;;;;;;5086500;28;19935;-70
2022/01/01 08:26:20;;;;;;;;;;;;;;;;;;5074290;28;19928;-70
2022/01/01 08:28:48;;;;;;;;;;;;;;;;;;5084417;28;19932;-71
2022/01/01 08:31:20;;;;;;;;;;;;;;;;;;5086067;28;19931;-69
2022/01/01 08:33:55;;;;;;;;;;;;;;;;;;5083470;28;20245;-69
2022/01/01 08:36:25;;;;;;;;;;;;;;;;;;5067000;28;19924;-70
2022/01/01 08:38:54;;;;;;;;;;;;;;;;;;5087157;28;19931;-70
2022/01/01 08:41:24;;;;;;;;;;;;;;;;;;5084885;28;20534;-71
2022/01/01 08:43:54;;;;;;;;;;;;;;;;;;5076702;28;19923;-71
2022/01/01 08:46:24;;;;;;;;;;;;;;;;;;5071797;28;19928;-69
2022/01/01 08:48:55;;;;;;;;;;;;;;;;;;5081918;28;20409;-69
2022/01/01 08:51:37;;;;;;;;;;;;;;;;;;5076944;28;20282;-70
2022/01/01 08:54:07;;;;;;;;;;;;;;;;;;5073284;28;19977;-70
2022/01/01 08:56:37;;;;;;;;;;;;;;;;;;5091140;28;19924;-69
2022/01/01 08:59:08;;;;;;;;;;;;;;;;;;5084361;28;19932;-69
2022/01/01 09:01:37;;;;;;;;;;;;;;;;;;5081258;28;19935;-71
2022/01/01 09:04:09;;;;;;;;;;;;;;;;;;5084968;28;20346;-71
2022/01/01 09:06:40;;;;;;;;;;;;;;;;;;5076585;28;19928;-72
2022/01/01 09:09:11;;;;;;;;;;;;;;;;;;5081943;28;19928;-70
2022/01/01 09:11:39;;;;;;;;;;;;;;;;;;5068538;28;19928;-69
2022/01/01 09:14:06;;;;;;;;;;;;;;;;;;5082213;28;19928;-70
2022/01/01 09:16:36;;;;;;;;;;;;;;;;;;5080063;28;19985;-68
2022/01/01 09:19:05;;;;;;;;;;;;;;;;;;5083375;28;20399;-67
2022/01/01 09:21:37;;;;;;;;;;;;;;;;;;5087955;28;20287;-69
2022/01/01 09:24:07;;;;;;;;;;;;;;;;;;5068215;28;19938;-69
2022/01/01 09:26:38;;;;;;;;;;;;;;;;;;5081155;28;19928;-70
2022/01/01 09:29:10;;;;;;;;;;;;;;;;;;5085578;28;19932;-70
2022/01/01 09:31:39;;;;;;;;;;;;;;;;;;5083917;28;19931;-69
2022/01/01 09:34:09;;;;;;;;;;;;;;;;;;5083098;28;19928;-69
2022/01/01 09:36:40;;;;;;;;;;;;;;;;;;5078271;28;20381;-68
2022/01/01 09:39:11;;;;;;;;;;;;;;;;;;5081571;28;19928;-68
2022/01/01 09:41:42;;;;;;;;;;;;;;;;;;5084150;28;19931;-69
2022/01/01 09:44:12;;;;;;;;;;;;;;;;;;5079962;28;19928;-71
2022/01/01 09:46:40;;;;;;;;;;;;;;;;;;5083028;28;19938;-68
2022/01/01 09:49:09;;;;;;;;;;;;;;;;;;5077581;28;19928;-68
2022/01/01 09:51:38;;;;;;;;;;;;;;;;;;5080271;28;19980;-71
2022/01/01 09:54:07;;;;;;;;;;;;;;;;;;5082207;28;19978;-71
2022/01/01 09:56:36;;;;;;;;;;;;;;;;;;5083891;28;20168;-71
2022/01/01 09:59:09;;;;;;;;;;;;;;;;;;5082957;28;19959;-71
2022/01/01 10:01:47;;;;;;;;;;;;;;;;;;5077920;28;19923;-71
2022/01/01 10:04:14;;;;;;;;;;;;;;;;;;5075724;28;19932;-71
2022/01/01 10:06:45;;;;;;;;;;;;;;;;;;5081706;28;19924;-71
2022/01/01 10:09:19;;;;;;;;;;;;;;;;;;5084793;28;19932;-70
2022/01/01 10:11:47;;;;;;;;;;;;;;;;;;5081069;28;19943;-70
2022/01/01 10:14:22;;;;;;;;;;;;;;;;;;5076504;28;19924;-71
2022/01/01 10:16:54;;;;;;;;;;;;;;;;;;5081775;28;19981;-70
2022/01/01 10:19:25;;;;;;;;;;;;;;;;;;5084704;28;19935;-71
2022/01/01 10:21:58;;;;;;;;;;;;;;;;;;5080945;28;19942;-69
2022/01/01 10:24:50;;;;;;;;;;;;;;;;;;5078515;28;19928;-69
2022/01/01 10:30:03;;;;;;;;;;;;;;;;;;5064569;28;19943;-71
2022/01/01 10:32:34;;;;;;;;;;;;;;;;;;5063424;28;19976;-70
2022/01/01 10:35:05;;;;;;;;;;;;;;;;;;5071876;28;19924;-70
2022/01/01 10:37:36;;;;;;;;;;;;;;;;;;5063296;28;20510;-69
2022/01/01 10:40:09;;;;;;;;;;;;;;;;;;5072370;28;19928;-70
2022/01/01 10:42:39;;;;;;;;;;;;;;;;;;5069185;28;19935;-69
2022/01/01 10:45:18;;;;;;;;;;;;;;;;;;5064613;28;19928;-69
2022/01/01 10:48:00;;;;;;;;;;;;;;;;;;5061105;28;19940;-69
2022/01/01 10:50:31;;;;;;;;;;;;;;;;;;5047819;28;20528;-72
2022/01/01 10:53:03;;;;;;;;;;;;;;;;;;5074393;28;19938;-72
2022/01/01 10:55:34;;;;;;;;;;;;;;;;;;5067192;28;19932;-72
2022/01/01 10:58:08;;;;;;;;;;;;;;;;;;5068384;28;19928;-72
2022/01/01 11:00:39;;;;;;;;;;;;;;;;;;5061955;28;20552;-71
2022/01/01 11:03:15;;;;;;;;;;;;;;;;;;5051884;28;19929;-71
2022/01/01 11:05:50;;;;;;;;;;;;;;;;;;5067448;28;19996;-69
2022/01/01 11:08:20;;;;;;;;;;;;;;;;;;5072485;28;19924;-70
2022/01/01 11:10:48;;;;;;;;;;;;;;;;;;5069686;28;19935;-71
2022/01/01 11:13:20;;;;;;;;;;;;;;;;;;5068659;28;19928;-71
2022/01/01 11:15:54;;;;;;;;;;;;;;;;;;5049440;28;20015;-71
2022/01/01 11:18:24;;;;;;;;;;;;;;;;;;5068734;28;20308;-70
2022/01/01 11:21:10;;;;;;;;;;;;;;;;;;5071872;28;19976;-70
2022/01/01 11:23:41;;;;;;;;;;;;;;;;;;5048693;28;19934;-70
2022/01/01 11:26:12;;;;;;;;;;;;;;;;;;5065101;28;19940;-69
2022/01/01 11:28:47;;;;;;;;;;;;;;;;;;5039417;28;20233;-69
2022/01/01 11:31:16;;;;;;;;;;;;;;;;;;5070879;28;19943;-70
2022/01/01 11:33:47;;;;;;;;;;;;;;;;;;5068082;28;19928;-71
2022/01/01 11:36:23;;;;;;;;;;;;;;;;;;5067967;28;20354;-69
2022/01/01 11:38:51;;;;;;;;;;;;;;;;;;5068692;28;19936;-69
2022/01/01 11:41:20;;;;;;;;;;;;;;;;;;5067060;28;20304;-69
2022/01/01 11:43:53;;;;;;;;;;;;;;;;;;5062887;28;19932;-69
2022/01/01 11:46:20;;;;;;;;;;;;;;;;;;5070071;28;19980;-69
2022/01/01 11:48:50;;;;;;;;;;;;;;;;;;5062665;28;19933;-69
2022/01/01 11:51:21;;;;;;;;;;;;;;;;;;5068107;28;19936;-69
2022/01/01 11:53:52;;;;;;;;;;;;;;;;;;5066167;28;19928;-69
2022/01/01 11:56:22;;;;;;;;;;;;;;;;;;5057939;28;19924;-70
2022/01/01 11:58:53;;;;;;;;;;;;;;;;;;5065188;28;20023;-70
2022/01/01 12:01:24;;;;;;;;;;;;;;;;;;5052854;28;19929;-71
2022/01/01 12:03:56;;;;;;;;;;;;;;;;;;5062825;28;19932;-71
2022/01/01 12:06:26;;;;;;;;;;;;;;;;;;5048203;28;19928;-70
2022/01/01 12:08:56;;;;;;;;;;;;;;;;;;5066266;28;19925;-70
2022/01/01 12:11:26;;;;;;;;;;;;;;;;;;5063425;28;19968;-70
2022/01/01 12:14:09;;;;;;;;;;;;;;;;;;5065252;28;19928;-71
2022/01/01 12:16:41;;;;;;;;;;;;;;;;;;5067997;28;20267;-71
2022/01/01 12:19:09;;;;;;;;;;;;;;;;;;5065675;28;20363;-71
2022/01/01 12:21:36;;;;;;;;;;;;;;;;;;5070690;28;19924;-70
2022/01/01 12:24:11;;;;;;;;;;;;;;;;;;5066717;28;19928;-68
2022/01/01 12:26:44;;;;;;;;;;;;;;;;;;5060612;28;19925;-68
2022/01/01 12:29:14;;;;;;;;;;;;;;;;;;5048653;28;19936;-68
2022/01/01 12:31:44;;;;;;;;;;;;;;;;;;5066344;28;19924;-68
2022/01/01 12:34:13;;;;;;;;;;;;;;;;;;5065133;28;19928;-68
2022/01/01 12:36:46;;;;;;;;;;;;;;;;;;5054173;28;19932;-68
2022/01/01 12:39:32;;;;;;;;;;;;;;;;;;5066873;28;20051;-68
2022/01/01 12:42:04;;;;;;;;;;;;;;;;;;5055116;28;20278;-73
2022/01/01 12:44:34;;;;;;;;;;;;;;;;;;5061441;28;19935;-73
2022/01/01 12:47:08;;;;;;;;;;;;;;;;;;5061117;28;20425;-73
2022/01/01 12:49:36;;;;;;;;;;;;;;;;;;5042463;28;19928;-71
2022/01/01 12:52:11;;;;;;;;;;;;;;;;;;5062468;28;19985;-71
2022/01/01 12:54:40;;;;;;;;;;;;;;;;;;5063857;28;19932;-72
2022/01/01 12:57:09;;;;;;;;;;;;;;;;;;5062328;28;20385;-72
2022/01/01 12:59:42;;;;;;;;;;;;;;;;;;5064636;28;19993;-69
2022/01/01 13:02:09;;;;;;;;;;;;;;;;;;5060636;28;19981;-69
2022/01/01 13:04:40;;;;;;;;;;;;;;;;;;5058981;28;19924;-69
2022/01/01 13:07:08;;;;;;;;;;;;;;;;;;5061966;28;19924;-68
2022/01/01 13:09:38;;;;;;;;;;;;;;;;;;5065934;28;19928;-68
2022/01/01 13:12:06;;;;;;;;;;;;;;;;;;5068434;28;19971;-68
2022/01/01 13:14:41;;;;;;;;;;;;;;;;;;5060056;28;20015;-69
2022/01/01 13:17:12;;;;;;;;;;;;;;;;;;5056856;28;19932;-70
2022/01/01 13:19:49;;;;;;;;;;;;;;;;;;5064906;28;19928;-70
2022/01/01 13:22:19;;;;;;;;;;;;;;;;;;5062287;28;19951;-70
2022/01/01 13:24:49;;;;;;;;;;;;;;;;;;5065390;28;19973;-70
2022/01/01 13:27:17;;;;;;;;;;;;;;;;;;5087077;28;19931;-70
2022/01/01 13:29:48;;;;;;;;;;;;;;;;;;5072109;28;19928;-70
2022/01/01 13:32:17;;;;;;;;;;;;;;;;;;5086555;28;19935;-67
2022/01/01 13:34:47;;;;;;;;;;;;;;;;;;5085819;28;19969;-67
2022/01/01 13:37:21;;;;;;;;;;;;;;;;;;5078658;28;19939;-70
2022/01/01 13:39:51;;;;;;;;;;;;;;;;;;5085428;28;19932;-70
2022/01/01 13:42:20;;;;;;;;;;;;;;;;;;5084056;28;19932;-68
2022/01/01 13:44:48;;;;;;;;;;;;;;;;;;5084040;28;19932;-69
2022/01/01 13:47:23;;;;;;;;;;;;;;;;;;5081745;28;19924;-70
2022/01/01 13:50:01;;;;;;;;;;;;;;;;;;5079788;28;20372;-70
2022/01/01 13:52:36;;;;;;;;;;;;;;;;;;5064546;28;19932;-68
2022/01/01 13:55:10;;;;;;;;;;;;;;;;;;5063910;28;19924;-69
2022/01/01 13:57:45;;;;;;;;;;;;;;;;;;5085987;28;19924;-70
2022/01/01 14:00:15;;;;;;;;;;;;;;;;;;5086413;28;20019;-70
2022/01/01 14:02:46;;;;;;;;;;;;;;;;;;5073587;28;20160;-70
2022/01/01 14:05:28;;;;;;;;;;;;;;;;;;5087634;28;19931;-69
2022/01/01 14:07:57;;;;;;;;;;;;;;;;;;5085394;28;20572;-69
2022/01/01 14:10:26;;;;;;;;;;;;;;;;;;5080344;28;19932;-69
2022/01/01 14:12:57;;;;;;;;;;;;;;;;;;5085790;28;19935;-68
2022/01/01 14:15:26;;;;;;;;;;;;;;;;;;5084374;28;19924;-67
2022/01/01 14:17:57;;;;;;;;;;;;;;;;;;5081830;28;19935;-67
2022/01/01 14:20:34;;;;;;;;;;;;;;;;;;5074165;28;19928;-67
2022/01/01 14:23:06;;;;;;;;;;;;;;;;;;5061165;28;19924;-67
2022/01/01 14:25:35;;;;;;;;;;;;;;;;;;5081517;28;19924;-68
2022/01/01 14:28:03;;;;;;;;;;;;;;;;;;5074112;28;19939;-68
2022/01/01 14:30:35;;;;;;;;;;;;;;;;;;5063122;28;19936;-68
2022/01/01 14:33:06;;;;;;;;;;;;;;;;;;5048850;28;19925;-68
2022/01/01 14:35:39;;;;;;;;;;;;;;;;;;5066126;28;20282;-67
2022/01/01 14:38:07;;;;;;;;;;;;;;;;;;5051579;28;19977;-67
2022/01/01 14:40:38;;;;;;;;;;;;;;;;;;5064799;28;19974;-67
2022/01/01 14:43:08;;;;;;;;;;;;;;;;;;5062957;28;19924;-67
2022/01/01 14:45:42;;;;;;;;;;;;;;;;;;5067840;28;19964;-67
2022/01/01 14:48:11;;;;;;;;;;;;;;;;;;5062330;28;19924;-67
2022/01/01 14:50:40;;;;;;;;;;;;;;;;;;5060089;28;19933;-68
2022/01/01 14:53:08;;;;;;;;;;;;;;;;;;5068851;28;19928;-68
2022/01/01 14:55:35;;;;;;;;;;;;;;;;;;5065680;28;19934;-68
2022/01/01 14:58:08;;;;;;;;;;;;;;;;;;5068969;28;19928;-68
2022/01/01 15:00:41;;;;;;;;;;;;;;;;;;5054590;28;20366;-68
2022/01/01 15:03:13;;;;;;;;;;;;;;;;;;5067293;28;19928;-68
2022/01/01 15:05:43;;;;;;;;;;;;;;;;;;5058583;28;19951;-68
2022/01/01 15:08:15;;;;;;;;;;;;;;;;;;5059033;28;19928;-68
2022/01/01 15:10:46;;;;;;;;;;;;;;;;;;5062803;28;20361;-69
2022/01/01 15:13:15;;;;;;;;;;;;;;;;;;5050629;28;20311;-70
2022/01/01 15:15:49;;;;;;;;;;;;;;;;;;5054681;28;20021;-70
2022/01/01 15:18:20;;;;;;;;;;;;;;;;;;5063417;28;20385;-70
2022/01/01 15:20:51;;;;;;;;;;;;;;;;;;5065325;28;19936;-67
2022/01/01 15:23:23;;;;;;;;;;;;;;;;;;5067666;28;19928;-67
2022/01/01 15:25:51;;;;;;;;;;;;;;;;;;5065163;28;19925;-67
2022/01/01 15:28:21;;;;;;;;;;;;;;;;;;5082749;28;20013;-68
2022/01/01 15:30:58;;;;;;;;;;;;;;;;;;5085554;28;19932;-68
2022/01/01 15:33:34;;;;;;;;;;;;;;;;;;5086493;28;19936;-69
2022/01/01 15:36:39;;;;;;;;;;;;;;;;;;5091299;28;19967;-71
2022/01/01 15:39:06;;;;;;;;;;;;;;;;;;5082021;28;20445;-70
2022/01/01 15:44:05;;;;;;;;;;;;;;;;;;5086495;28;19928;-69
2022/01/01 15:46:35;;;;;;;;;;;;;;;;;;5073193;28;19927;-69
2022/01/01 15:49:06;;;;;;;;;;;;;;;;;;5085225;28;19935;-70
2022/01/01 15:51:35;;;;;;;;;;;;;;;;;;5089793;28;19928;-70
2022/01/01 15:54:03;;;;;;;;;;;;;;;;;;5085452;28;19930;-70
2022/01/01 15:56:34;;;;;;;;;;;;;;;;;;5090137;28;19962;-70
2022/01/01 15:59:04;;;;;;;;;;;;;;;;;;5086867;28;19935;-70
2022/01/01 16:01:49;;;;;;;;;;;;;;;;;;5065253;28;19924;-70
2022/01/01 16:04:20;;;;;;;;;;;;;;;;;;5085298;28;19935;-70
2022/01/01 16:06:51;;;;;;;;;;;;;;;;;;5088213;28;20441;-70
2022/01/01 16:09:24;;;;;;;;;;;;;;;;;;5089198;28;19928;-70
2022/01/01 16:11:54;;;;;;;;;;;;;;;;;;5083378;28;19958;-70
2022/01/01 16:14:22;;;;;;;;;;;;;;;;;;5080600;28;19985;-70
2022/01/01 16:16:51;;;;;;;;;;;;;;;;;;5087119;28;20449;-70
2022/01/01 16:19:20;;;;;;;;;;;;;;;;;;5086380;28;20589;-70
2022/01/01 16:21:51;;;;;;;;;;;;;;;;;;5084371;28;20327;-70
2022/01/01 16:24:26;;;;;;;;;;;;;;;;;;5076889;28;19932;-70
2022/01/01 16:26:53;;;;;;;;;;;;;;;;;;5069668;28;19933;-70
2022/01/01 16:29:27;;;;;;;;;;;;;;;;;;5061566;28;20460;-70
2022/01/01 16:31:55;;;;;;;;;;;;;;;;;;5071417;28;19953;-70
2022/01/01 16:34:24;;;;;;;;;;;;;;;;;;5061875;28;19940;-70
2022/01/01 16:36:55;;;;;;;;;;;;;;;;;;5063167;28;19925;-70
2022/01/01 16:39:26;;;;;;;;;;;;;;;;;;5063846;28;20019;-70
2022/01/01 16:41:57;;;;;;;;;;;;;;;;;;5063426;28;19973;-70
2022/01/01 16:44:26;;;;;;;;;;;;;;;;;;5061759;28;19981;-70
2022/01/01 16:46:58;;;;;;;;;;;;;;;;;;5068089;28;20349;-70
2022/01/01 16:49:54;;;;;;;;;;;;;;;;;;5058449;28;19927;-70
2022/01/01 16:52:23;;;;;;;;;;;;;;;;;;5046739;28;19940;-70
2022/01/01 16:54:50;;;;;;;;;;;;;;;;;;5062647;28;19925;-70
2022/01/01 16:57:21;;;;;;;;;;;;;;;;;;5064914;28;20329;-70
2022/01/01 16:59:51;;;;;;;;;;;;;;;;;;5064568;28;19933;-70
2022/01/01 17:02:22;;;;;;;;;;;;;;;;;;5063161;28;19933;-70
2022/01/01 17:04:51;;;;;;;;;;;;;;;;;;5064760;28;19931;-70
2022/01/01 17:07:22;;;;;;;;;;;;;;;;;;5064711;28;20285;-70
2022/01/01 17:09:58;;;;;;;;;;;;;;;;;;5064775;28;19932;-70
2022/01/01 17:12:30;;;;;;;;;;;;;;;;;;5059601;28;20430;-70
2022/01/01 17:14:58;;;;;;;;;;;;;;;;;;5060487;28;19932;-70
2022/01/01 17:17:33;;;;;;;;;;;;;;;;;;5063498;28;20274;-70